Time;durP1;ratioP1;P1;durP2;ratioP2;P2;SDS_P1;SDS_P2;PMS_P1;PMS_P2;Temp;Humidity;BMP_temperature;BMP_pressure;BME280_temperature;BME280_humidity;BME280_pressure;Samples;Min_cycle;Max_cycle;Signal;HPM_P1;HPM_P2
2022/09/06 00:00:07;;;;;;;;;;;;;;;25.52;60.44;100787.22;2045505;28;20361;-73
2022/09/06 00:01:34;;;;;;;;;;;;;;;25.53;60.44;100791.69;2060849;28;19922;-73
2022/09/06 00:02:57;;;;;;;;;;;;;;;25.57;60.36;100787.00;2062787;28;20349;-74
2022/09/06 00:04:20;;;;;;;;;;;;;;;25.56;60.31;100782.53;2060732;28;19929;-73
2022/09/06 00:05:42;;;;;;;;;;;;;;;25.54;60.19;100777.19;2053865;28;19972;-73
2022/09/06 00:07:06;;;;;;;;;;;;;;;25.55;60.55;100769.97;2062315;28;19987;-74
2022/09/06 00:08:27;;;;;;;;;;;;;;;25.54;60.73;100779.03;2063378;28;19922;-74
2022/09/06 00:09:49;;;;;;;;;;;;;;;25.55;60.49;100781.66;2059864;28;20393;-73
2022/09/06 00:11:12;;;;;;;;;;;;;;;25.55;60.82;100772.69;2053566;28;20374;-73
2022/09/06 00:12:33;;;;;;;;;;;;;;;25.54;60.52;100768.22;2053695;28;19952;-73
2022/09/06 00:13:55;;;;;;;;;;;;;;;25.51;60.86;100779.19;2056442;28;20457;-73
2022/09/06 00:15:16;;;;;;;;;;;;;;;25.47;61.21;100774.88;2048756;28;19922;-74
2022/09/06 00:16:39;;;;;;;;;;;;;;;25.41;61.13;100759.78;2050223;28;19930;-73
2022/09/06 00:18:01;;;;;;;;;;;;;;;25.35;61.56;100770.88;2058927;28;19922;-73
2022/09/06 00:19:23;;;;;;;;;;;;;;;25.37;61.52;100775.28;2060668;28;20019;-73
2022/09/06 00:20:45;;;;;;;;;;;;;;;25.40;61.26;100766.16;2061692;28;19933;-73
2022/09/06 00:22:08;;;;;;;;;;;;;;;25.43;60.84;100782.22;2059538;28;20020;-74
2022/09/06 00:23:30;;;;;;;;;;;;;;;25.46;60.59;100765.88;2059780;28;20453;-73
2022/09/06 00:24:53;;;;;;;;;;;;;;;25.48;60.47;100773.91;2063277;28;20389;-73
2022/09/06 00:26:15;;;;;;;;;;;;;;;25.48;60.51;100769.38;2060780;28;19987;-74
2022/09/06 00:27:38;;;;;;;;;;;;;;;25.48;60.89;100773.91;2058921;28;20549;-73
2022/09/06 00:29:00;;;;;;;;;;;;;;;25.47;60.64;100769.47;2052010;28;19928;-73
2022/09/06 00:30:21;;;;;;;;;;;;;;;25.47;60.81;100774.88;2043351;29;19922;-74
2022/09/06 00:31:43;;;;;;;;;;;;;;;25.46;60.88;100778.53;2053033;28;19922;-73
2022/09/06 00:33:05;;;;;;;;;;;;;;;25.42;60.83;100784.06;2053625;28;19953;-73
2022/09/06 00:34:27;;;;;;;;;;;;;;;25.41;61.01;100768.78;2048344;28;19930;-73
2022/09/06 00:35:49;;;;;;;;;;;;;;;25.40;61.26;100790.50;2061192;28;19929;-73
2022/09/06 00:37:11;;;;;;;;;;;;;;;25.40;61.61;100788.66;2060774;28;19928;-74
2022/09/06 00:38:34;;;;;;;;;;;;;;;25.38;61.87;100774.34;2061408;28;19968;-74
2022/09/06 00:39:55;;;;;;;;;;;;;;;25.36;61.61;100784.34;2060843;28;19926;-73
2022/09/06 00:41:18;;;;;;;;;;;;;;;25.33;61.61;100787.19;2061551;28;20016;-73
2022/09/06 00:42:39;;;;;;;;;;;;;;;25.30;61.92;100781.03;2047985;29;19922;-73
2022/09/06 00:44:02;;;;;;;;;;;;;;;25.27;61.78;100779.31;2050759;28;19930;-73
2022/09/06 00:45:23;;;;;;;;;;;;;;;25.25;62.20;100788.47;2049051;28;19925;-73
2022/09/06 00:46:46;;;;;;;;;;;;;;;25.24;61.96;100787.59;2052828;28;19922;-73
2022/09/06 00:48:08;;;;;;;;;;;;;;;25.25;61.92;100791.19;2057793;28;19922;-73
2022/09/06 00:49:33;;;;;;;;;;;;;;;25.24;62.01;100771.38;2060489;28;19968;-73
2022/09/06 00:50:56;;;;;;;;;;;;;;;25.24;61.84;100782.19;2061119;28;19921;-73
2022/09/06 00:52:19;;;;;;;;;;;;;;;25.23;61.66;100779.53;2052702;28;19925;-73
2022/09/06 00:53:41;;;;;;;;;;;;;;;25.19;61.48;100772.53;2057597;28;19980;-73
2022/09/06 00:55:04;;;;;;;;;;;;;;;25.18;61.86;100778.88;2060677;28;19961;-74
2022/09/06 00:56:25;;;;;;;;;;;;;;;25.17;61.62;100775.28;2060205;28;20009;-73
2022/09/06 00:57:50;;;;;;;;;;;;;;;25.18;61.34;100770.78;2060529;28;20440;-73
2022/09/06 00:59:11;;;;;;;;;;;;;;;25.20;61.56;100777.88;2052593;28;19929;-73
2022/09/06 01:00:33;;;;;;;;;;;;;;;25.23;61.16;100777.72;2057886;28;19922;-73
2022/09/06 01:01:55;;;;;;;;;;;;;;;25.24;61.63;100779.47;2049725;28;20417;-73
2022/09/06 01:03:18;;;;;;;;;;;;;;;25.26;61.64;100779.41;2044687;29;19954;-73
2022/09/06 01:04:41;;;;;;;;;;;;;;;25.23;61.21;100780.41;2059043;28;19925;-73
2022/09/06 01:06:11;;;;;;;;;;;;;;;25.21;61.75;100778.72;2064645;28;19928;-73
2022/09/06 01:07:47;;;;;;;;;;;;;;;25.18;61.51;100776.19;2055131;28;19922;-73
2022/09/06 01:09:15;;;;;;;;;;;;;;;25.15;61.35;100770.91;2056816;28;19926;-73
2022/09/06 01:10:52;;;;;;;;;;;;;;;25.12;61.61;100771.94;2061032;28;19945;-74
2022/09/06 01:12:21;;;;;;;;;;;;;;;25.09;62.36;100761.25;2048217;29;20410;-73
2022/09/06 01:13:49;;;;;;;;;;;;;;;25.06;62.61;100780.31;2044297;28;20421;-73
2022/09/06 01:15:20;;;;;;;;;;;;;;;25.04;62.37;100763.28;2058988;28;20024;-73
2022/09/06 01:16:45;;;;;;;;;;;;;;;25.02;61.96;100768.75;2062417;28;20419;-73
2022/09/06 01:18:13;;;;;;;;;;;;;;;25.02;61.83;100766.03;2062349;28;20421;-73
2022/09/06 01:20:08;;;;;;;;;;;;;;;25.04;62.19;100773.19;2062312;28;19925;-73
2022/09/06 01:21:37;;;;;;;;;;;;;;;25.07;61.86;100760.44;2035835;29;19927;-73
2022/09/06 01:23:16;;;;;;;;;;;;;;;25.10;62.06;100770.22;2030953;29;19927;-74
2022/09/06 01:25:00;;;;;;;;;;;;;;;25.12;62.25;100784.56;2064418;28;19921;-73
2022/09/06 01:26:37;;;;;;;;;;;;;;;25.13;62.26;100765.59;2068090;28;19925;-73
2022/09/06 01:28:29;;;;;;;;;;;;;;;25.14;61.96;100764.59;2065385;28;19926;-73
2022/09/06 01:29:55;;;;;;;;;;;;;;;25.14;61.98;100764.59;2056557;28;19922;-74
2022/09/06 01:31:24;;;;;;;;;;;;;;;25.14;61.81;100766.47;2069370;28;19979;-74
2022/09/06 01:32:51;;;;;;;;;;;;;;;25.12;61.60;100771.03;2057525;28;20396;-73
2022/09/06 01:34:20;;;;;;;;;;;;;;;25.09;61.83;100769.34;2055253;28;19922;-73
2022/09/06 01:35:48;;;;;;;;;;;;;;;25.09;61.46;100776.56;2069668;28;19952;-73
2022/09/06 01:37:11;;;;;;;;;;;;;;;25.07;61.60;100768.56;2064356;28;19922;-73
2022/09/06 01:38:33;;;;;;;;;;;;;;;25.06;61.34;100771.31;2056849;28;20460;-73
2022/09/06 01:39:54;;;;;;;;;;;;;;;25.07;61.42;100779.38;2049624;28;19926;-73
2022/09/06 01:41:16;;;;;;;;;;;;;;;25.07;61.36;100784.78;2044174;29;19927;-73
2022/09/06 01:42:38;;;;;;;;;;;;;;;25.06;61.06;100782.13;2044188;29;20030;-73
2022/09/06 01:44:01;;;;;;;;;;;;;;;25.03;61.43;100766.91;2057029;28;19922;-73
2022/09/06 01:45:30;;;;;;;;;;;;;;;25.02;61.08;100774.13;2061179;28;19921;-74
2022/09/06 01:46:55;;;;;;;;;;;;;;;25.02;61.29;100789.47;2047398;29;20315;-74
2022/09/06 01:48:24;;;;;;;;;;;;;;;24.98;61.10;100777.06;2062040;28;20514;-73
2022/09/06 01:49:51;;;;;;;;;;;;;;;24.96;61.10;100778.94;2062284;28;19981;-73
2022/09/06 01:51:23;;;;;;;;;;;;;;;24.93;61.18;100784.50;2054502;28;19954;-74
2022/09/06 01:52:49;;;;;;;;;;;;;;;24.92;60.94;100797.13;2053092;28;19976;-72
2022/09/06 01:54:21;;;;;;;;;;;;;;;24.92;61.23;100777.31;2060285;28;20275;-73
2022/09/06 01:55:48;;;;;;;;;;;;;;;24.92;61.23;100788.13;2062263;28;19922;-73
2022/09/06 01:57:14;;;;;;;;;;;;;;;24.95;60.99;100790.69;2062765;28;19922;-73
2022/09/06 01:58:53;;;;;;;;;;;;;;;24.98;61.16;100795.97;2052443;28;19922;-73
2022/09/06 02:00:16;;;;;;;;;;;;;;;24.98;61.09;100785.16;2056721;28;19922;-73
2022/09/06 02:01:48;;;;;;;;;;;;;;;24.98;60.45;100794.13;2054650;28;19922;-74
2022/09/06 02:03:13;;;;;;;;;;;;;;;24.99;60.82;100795.03;2053520;28;19922;-73
2022/09/06 02:04:40;;;;;;;;;;;;;;;25.00;60.68;100783.28;2054333;28;19964;-72
2022/09/06 02:06:04;;;;;;;;;;;;;;;25.01;60.55;100785.00;2056453;28;19929;-73
2022/09/06 02:07:27;;;;;;;;;;;;;;;25.02;60.47;100792.16;2059007;28;19980;-73
2022/09/06 02:08:52;;;;;;;;;;;;;;;25.03;60.36;100791.22;2062872;28;19953;-73
2022/09/06 02:10:17;;;;;;;;;;;;;;;25.05;60.06;100785.78;2059965;28;19921;-72
2022/09/06 02:11:43;;;;;;;;;;;;;;;25.06;60.20;100784.81;2054897;28;19973;-72
2022/09/06 02:13:05;;;;;;;;;;;;;;;25.06;59.83;100783.00;2059798;28;19976;-73
2022/09/06 02:14:28;;;;;;;;;;;;;;;25.06;59.63;100791.13;2061418;28;19949;-73
2022/09/06 02:15:52;;;;;;;;;;;;;;;25.07;59.51;100789.28;2062093;28;19922;-73
2022/09/06 02:17:19;;;;;;;;;;;;;;;25.08;59.33;100793.72;2054842;28;19969;-73
2022/09/06 02:18:42;;;;;;;;;;;;;;;25.08;59.20;100791.91;2046881;28;19923;-73
2022/09/06 02:20:07;;;;;;;;;;;;;;;25.08;59.63;100788.31;2059384;28;19968;-73
2022/09/06 02:21:30;;;;;;;;;;;;;;;25.06;59.59;100790.22;2046781;29;20028;-73
2022/09/06 02:22:55;;;;;;;;;;;;;;;25.04;59.71;100797.50;2056729;28;19999;-73
2022/09/06 02:24:19;;;;;;;;;;;;;;;25.03;59.53;100804.75;2054572;28;19930;-73
2022/09/06 02:25:43;;;;;;;;;;;;;;;25.03;59.52;100804.75;2059928;28;19922;-73
2022/09/06 02:27:04;;;;;;;;;;;;;;;25.02;59.98;100808.38;2062600;28;20377;-73
2022/09/06 02:28:27;;;;;;;;;;;;;;;24.99;59.76;100813.94;2060781;28;20080;-73
2022/09/06 02:29:49;;;;;;;;;;;;;;;24.97;59.73;100811.28;2063162;28;19929;-73
2022/09/06 02:31:13;;;;;;;;;;;;;;;24.96;59.75;100811.34;2064938;28;19936;-73
2022/09/06 02:32:39;;;;;;;;;;;;;;;24.96;59.34;100806.81;2052969;28;20587;-73
2022/09/06 02:34:01;;;;;;;;;;;;;;;24.95;59.55;100813.16;2052616;28;19922;-73
2022/09/06 02:35:23;;;;;;;;;;;;;;;24.97;59.48;100815.81;2057213;28;19944;-73
2022/09/06 02:36:45;;;;;;;;;;;;;;;24.97;59.42;100822.09;2056531;28;20016;-74
2022/09/06 02:38:07;;;;;;;;;;;;;;;25.00;59.30;100821.09;2052039;28;19926;-73
2022/09/06 02:39:29;;;;;;;;;;;;;;;25.01;58.98;100818.31;2056205;28;19929;-73
2022/09/06 02:40:51;;;;;;;;;;;;;;;25.01;59.10;100817.44;2060525;28;19921;-72
2022/09/06 02:42:14;;;;;;;;;;;;;;;25.02;59.20;100824.59;2062064;28;20424;-73
2022/09/06 02:43:35;;;;;;;;;;;;;;;25.04;58.90;100822.72;2053513;28;19929;-73
2022/09/06 02:44:57;;;;;;;;;;;;;;;25.04;59.04;100843.44;2058787;28;19932;-73
2022/09/06 02:46:18;;;;;;;;;;;;;;;25.04;58.97;100827.25;2061393;28;19928;-73
2022/09/06 02:47:43;;;;;;;;;;;;;;;25.04;58.75;100829.94;2061384;28;20403;-73
2022/09/06 02:49:04;;;;;;;;;;;;;;;25.04;58.57;100833.53;2058410;28;20112;-74
2022/09/06 02:50:26;;;;;;;;;;;;;;;25.03;58.24;100839.88;2060753;28;20058;-74
2022/09/06 02:51:47;;;;;;;;;;;;;;;25.02;58.58;100838.09;2059863;28;19948;-73
2022/09/06 02:53:10;;;;;;;;;;;;;;;25.02;58.49;100840.81;2061390;28;19934;-73
2022/09/06 02:54:32;;;;;;;;;;;;;;;25.02;58.52;100838.09;2061187;28;19922;-73
2022/09/06 02:55:53;;;;;;;;;;;;;;;25.02;58.24;100841.69;2061137;28;19956;-72
2022/09/06 02:57:15;;;;;;;;;;;;;;;25.02;58.39;100843.50;2062203;28;20025;-73
2022/09/06 02:58:36;;;;;;;;;;;;;;;25.02;58.28;100852.50;2058678;28;19930;-74
2022/09/06 02:59:58;;;;;;;;;;;;;;;25.04;58.05;100841.63;2061068;28;20290;-72
2022/09/06 03:01:19;;;;;;;;;;;;;;;25.04;58.14;100851.56;2061384;28;19933;-72
2022/09/06 03:02:42;;;;;;;;;;;;;;;25.04;57.82;100854.25;2061833;28;19929;-71
2022/09/06 03:04:04;;;;;;;;;;;;;;;25.03;57.97;100853.38;2061356;28;19936;-73
2022/09/06 03:05:26;;;;;;;;;;;;;;;25.00;58.06;100858.91;2060558;28;19930;-71
2022/09/06 03:06:49;;;;;;;;;;;;;;;25.00;58.09;100853.53;2056338;28;19922;-72
2022/09/06 03:08:09;;;;;;;;;;;;;;;25.01;57.74;100866.06;2061054;28;19928;-73
2022/09/06 03:09:32;;;;;;;;;;;;;;;25.03;58.06;100856.06;2054004;28;19930;-73
2022/09/06 03:10:55;;;;;;;;;;;;;;;25.00;57.87;100850.81;2053812;28;19925;-72
2022/09/06 03:12:17;;;;;;;;;;;;;;;24.96;57.92;100858.16;2056778;28;20036;-72
2022/09/06 03:13:39;;;;;;;;;;;;;;;24.92;58.07;100853.84;2062105;28;19922;-72
2022/09/06 03:15:00;;;;;;;;;;;;;;;24.93;58.17;100857.41;2053955;28;19984;-73
2022/09/06 03:16:22;;;;;;;;;;;;;;;24.93;57.83;100846.63;2053778;28;20337;-73
2022/09/06 03:17:45;;;;;;;;;;;;;;;24.94;57.93;100856.47;2061052;28;19961;-73
2022/09/06 03:19:07;;;;;;;;;;;;;;;24.94;58.10;100857.34;2062512;28;19961;-74
2022/09/06 03:20:29;;;;;;;;;;;;;;;24.95;57.68;100860.91;2048653;28;19930;-73
2022/09/06 03:21:50;;;;;;;;;;;;;;;24.96;57.71;100860.84;2045886;29;19957;-73
2022/09/06 03:23:12;;;;;;;;;;;;;;;24.97;57.63;100876.13;2050081;28;20367;-72
2022/09/06 03:24:35;;;;;;;;;;;;;;;25.00;57.54;100867.03;2053836;28;19922;-73
2022/09/06 03:25:57;;;;;;;;;;;;;;;25.01;57.86;100872.34;2061458;28;19925;-73
2022/09/06 03:27:19;;;;;;;;;;;;;;;25.04;57.53;100874.06;2061197;28;19926;-73
2022/09/06 03:28:42;;;;;;;;;;;;;;;25.05;57.73;100874.94;2056681;28;19922;-73
2022/09/06 03:30:05;;;;;;;;;;;;;;;25.05;57.75;100878.50;2046152;29;19926;-73
2022/09/06 03:31:27;;;;;;;;;;;;;;;25.06;57.96;100879.41;2055446;28;20384;-73
2022/09/06 03:32:49;;;;;;;;;;;;;;;25.06;57.83;100871.28;2054187;28;19988;-73
2022/09/06 03:34:12;;;;;;;;;;;;;;;25.06;57.94;100869.47;2059532;28;19922;-72
2022/09/06 03:35:32;;;;;;;;;;;;;;;25.06;57.81;100866.78;2056519;28;19950;-73
2022/09/06 03:36:55;;;;;;;;;;;;;;;25.08;57.87;100869.38;2059207;28;19922;-73
2022/09/06 03:38:16;;;;;;;;;;;;;;;25.09;57.83;100869.31;2053534;28;19925;-72
2022/09/06 03:39:38;;;;;;;;;;;;;;;25.10;57.73;100871.09;2059282;28;19929;-73
2022/09/06 03:41:00;;;;;;;;;;;;;;;25.12;57.46;100857.50;2061086;28;20402;-73
2022/09/06 03:42:25;;;;;;;;;;;;;;;25.12;57.39;100869.19;2062120;28;20013;-73
2022/09/06 03:43:47;;;;;;;;;;;;;;;25.12;57.32;100871.03;2070470;28;20376;-73
2022/09/06 03:45:08;;;;;;;;;;;;;;;25.11;57.49;100872.84;2064463;28;19921;-73
2022/09/06 03:46:30;;;;;;;;;;;;;;;25.13;57.50;100887.19;2053780;28;19922;-73
2022/09/06 03:47:53;;;;;;;;;;;;;;;25.12;57.78;100880.00;2058364;28;19928;-74
2022/09/06 03:49:15;;;;;;;;;;;;;;;25.12;57.56;100877.31;2063612;28;20068;-73
2022/09/06 03:50:36;;;;;;;;;;;;;;;25.12;57.80;100884.53;2064356;28;19926;-73
2022/09/06 03:51:58;;;;;;;;;;;;;;;25.12;57.54;100895.34;2061266;28;19922;-72
2022/09/06 03:53:19;;;;;;;;;;;;;;;25.11;57.83;100893.59;2064621;28;20413;-73
2022/09/06 03:54:41;;;;;;;;;;;;;;;25.14;57.49;100893.47;2061512;28;19928;-73
2022/09/06 03:56:02;;;;;;;;;;;;;;;25.15;57.26;100895.19;2063473;28;19922;-73
2022/09/06 03:57:25;;;;;;;;;;;;;;;25.15;57.62;100898.78;2046020;29;19922;-73
2022/09/06 03:58:46;;;;;;;;;;;;;;;25.15;57.47;100906.88;2048905;28;19922;-73
2022/09/06 04:00:09;;;;;;;;;;;;;;;25.15;57.51;100898.78;2052668;28;19929;-73
2022/09/06 04:01:33;;;;;;;;;;;;;;;25.17;57.57;100899.59;2054257;28;20016;-73
2022/09/06 04:02:57;;;;;;;;;;;;;;;25.17;57.63;100904.13;2049650;28;19922;-73
2022/09/06 04:04:18;;;;;;;;;;;;;;;25.16;57.58;100889.72;2051190;28;20779;-73
2022/09/06 04:05:41;;;;;;;;;;;;;;;25.14;57.45;100902.41;2050232;28;20099;-73
2022/09/06 04:07:03;;;;;;;;;;;;;;;25.13;57.35;100900.69;2058894;28;20412;-72
2022/09/06 04:08:24;;;;;;;;;;;;;;;25.09;57.37;100904.44;2056576;28;19934;-73
2022/09/06 04:09:46;;;;;;;;;;;;;;;25.08;57.88;100893.69;2057992;28;19929;-73
2022/09/06 04:11:08;;;;;;;;;;;;;;;25.07;57.99;100900.06;2053599;28;19980;-74
2022/09/06 04:12:29;;;;;;;;;;;;;;;25.08;57.42;100899.09;2061514;28;19922;-73
2022/09/06 04:13:51;;;;;;;;;;;;;;;25.09;57.76;100896.34;2057016;28;20008;-73
2022/09/06 04:15:12;;;;;;;;;;;;;;;25.09;57.84;100896.34;2061629;28;19921;-73
2022/09/06 04:16:34;;;;;;;;;;;;;;;25.11;57.66;100899.00;2052860;28;19928;-73
2022/09/06 04:17:57;;;;;;;;;;;;;;;25.13;57.84;100906.09;2059024;28;20547;-73
2022/09/06 04:19:19;;;;;;;;;;;;;;;25.14;57.64;100905.13;2053482;28;19929;-73
2022/09/06 04:20:41;;;;;;;;;;;;;;;25.16;57.65;100903.25;2050141;28;19921;-73
2022/09/06 04:22:03;;;;;;;;;;;;;;;25.16;57.85;100914.06;2053701;28;19972;-73
2022/09/06 04:23:25;;;;;;;;;;;;;;;25.15;57.78;100903.31;2047579;28;19926;-73
2022/09/06 04:24:46;;;;;;;;;;;;;;;25.15;57.96;100912.28;2052905;28;20393;-72
2022/09/06 04:26:09;;;;;;;;;;;;;;;25.14;58.17;100905.13;2058227;28;20103;-73
2022/09/06 04:27:31;;;;;;;;;;;;;;;25.14;58.11;100907.81;2061145;28;20004;-72
2022/09/06 04:28:53;;;;;;;;;;;;;;;25.15;57.60;100904.19;2052938;28;20314;-72
2022/09/06 04:30:14;;;;;;;;;;;;;;;25.17;57.71;100915.81;2052701;28;22163;-73
2022/09/06 04:31:36;;;;;;;;;;;;;;;25.18;57.78;100920.28;2058873;28;19925;-73
2022/09/06 04:32:58;;;;;;;;;;;;;;;25.19;57.28;100913.94;2061814;28;19922;-73
2022/09/06 04:34:20;;;;;;;;;;;;;;;25.21;57.24;100917.44;2052385;28;19933;-73
2022/09/06 04:35:41;;;;;;;;;;;;;;;25.24;57.72;100914.63;2058891;28;19922;-73
2022/09/06 04:37:03;;;;;;;;;;;;;;;25.27;57.13;100900.09;2060130;28;19922;-74
2022/09/06 04:38:24;;;;;;;;;;;;;;;25.27;57.48;100914.47;2050585;28;19933;-73
2022/09/06 04:39:47;;;;;;;;;;;;;;;25.30;57.21;100916.19;2057437;28;19977;-72
2022/09/06 04:41:09;;;;;;;;;;;;;;;25.32;57.52;100920.59;2046827;28;20458;-74
2022/09/06 04:42:31;;;;;;;;;;;;;;;25.36;57.36;100910.50;2059231;28;19921;-73
2022/09/06 04:43:52;;;;;;;;;;;;;;;25.37;57.26;100901.44;2069556;28;20377;-73
2022/09/06 04:45:14;;;;;;;;;;;;;;;25.42;56.93;100908.41;2055926;28;20406;-73
2022/09/06 04:46:37;;;;;;;;;;;;;;;25.50;56.98;100901.78;2060344;28;20007;-72
2022/09/06 04:47:59;;;;;;;;;;;;;;;25.53;56.47;100907.09;2045525;29;19926;-73
2022/09/06 04:49:22;;;;;;;;;;;;;;;25.53;56.36;100909.78;2052536;28;19922;-74
2022/09/06 04:50:43;;;;;;;;;;;;;;;25.54;55.88;100903.41;2045622;29;19941;-73
2022/09/06 04:52:05;;;;;;;;;;;;;;;25.53;55.54;100913.38;2058484;28;19922;-73
2022/09/06 04:53:26;;;;;;;;;;;;;;;25.59;56.16;100913.13;2061445;28;19922;-73
2022/09/06 04:54:49;;;;;;;;;;;;;;;25.66;55.55;100921.88;2057084;28;19926;-73
2022/09/06 04:56:13;;;;;;;;;;;;;;;25.72;55.37;100922.47;2052851;28;19922;-73
2022/09/06 04:57:35;;;;;;;;;;;;;;;25.74;55.93;100923.25;2059431;28;19922;-74
2022/09/06 04:58:58;;;;;;;;;;;;;;;25.77;55.79;100924.97;2060921;28;19922;-72
2022/09/06 05:00:20;;;;;;;;;;;;;;;25.77;55.32;100922.25;2055330;28;20446;-73
2022/09/06 05:01:42;;;;;;;;;;;;;;;25.72;55.50;100914.34;2047083;28;19940;-72
2022/09/06 05:03:06;;;;;;;;;;;;;;;25.69;56.01;100916.28;2050055;28;19936;-73
2022/09/06 05:04:28;;;;;;;;;;;;;;;25.67;55.81;100918.19;2060262;28;19925;-73
2022/09/06 05:05:48;;;;;;;;;;;;;;;25.64;55.67;100926.44;2062004;28;19921;-72
2022/09/06 05:07:10;;;;;;;;;;;;;;;25.60;55.80;100925.69;2052544;28;19926;-73
2022/09/06 05:08:31;;;;;;;;;;;;;;;25.59;55.98;100925.78;2059737;28;20369;-73
2022/09/06 05:09:53;;;;;;;;;;;;;;;25.60;55.75;100930.25;2062363;28;19922;-72
2022/09/06 05:11:14;;;;;;;;;;;;;;;25.61;56.02;100926.56;2056140;28;19988;-72
2022/09/06 05:12:37;;;;;;;;;;;;;;;25.63;56.16;100928.28;2059326;28;20024;-72
2022/09/06 05:13:59;;;;;;;;;;;;;;;25.64;55.62;100929.16;2062817;28;20393;-72
2022/09/06 05:15:22;;;;;;;;;;;;;;;25.62;55.76;100928.31;2047928;29;19984;-73
2022/09/06 05:16:44;;;;;;;;;;;;;;;25.60;55.92;100930.25;2055620;28;19922;-72
2022/09/06 05:18:07;;;;;;;;;;;;;;;25.57;55.52;100933.94;2062833;28;19921;-73
2022/09/06 05:19:30;;;;;;;;;;;;;;;25.56;55.71;100939.38;2053599;28;19922;-73
2022/09/06 05:20:51;;;;;;;;;;;;;;;25.57;55.55;100950.19;2051911;28;19922;-73
2022/09/06 05:22:13;;;;;;;;;;;;;;;25.59;55.68;100945.59;2052287;28;19957;-74
2022/09/06 05:23:35;;;;;;;;;;;;;;;25.62;55.78;100949.97;2059295;28;20025;-72
2022/09/06 05:24:56;;;;;;;;;;;;;;;25.64;55.98;100946.25;2061010;28;19930;-73
2022/09/06 05:26:18;;;;;;;;;;;;;;;25.67;55.93;100945.22;2053229;28;19945;-73
2022/09/06 05:27:39;;;;;;;;;;;;;;;25.68;55.73;100945.16;2060172;28;20759;-73
2022/09/06 05:29:01;;;;;;;;;;;;;;;25.69;55.52;100952.34;2060526;28;19941;-72
2022/09/06 05:30:22;;;;;;;;;;;;;;;25.69;55.49;100959.56;2047841;28;19923;-73
2022/09/06 05:31:44;;;;;;;;;;;;;;;25.70;55.34;100955.94;2061203;28;19992;-73
2022/09/06 05:33:08;;;;;;;;;;;;;;;25.70;55.53;100955.94;2065430;28;20007;-72
2022/09/06 05:34:30;;;;;;;;;;;;;;;25.70;55.37;100953.22;2062922;28;19925;-72
2022/09/06 05:35:51;;;;;;;;;;;;;;;25.74;55.31;100957.53;2054150;28;19922;-73
2022/09/06 05:37:13;;;;;;;;;;;;;;;25.77;55.61;100958.31;2058861;28;20264;-72
2022/09/06 05:38:34;;;;;;;;;;;;;;;25.80;55.15;100954.56;2049230;29;19922;-73
2022/09/06 05:39:58;;;;;;;;;;;;;;;25.79;55.24;100958.25;2059706;28;20297;-72
2022/09/06 05:41:20;;;;;;;;;;;;;;;25.82;55.45;100958.09;2057227;28;19930;-73
2022/09/06 05:42:42;;;;;;;;;;;;;;;25.85;54.70;100968.78;2046457;29;19970;-73
2022/09/06 05:44:04;;;;;;;;;;;;;;;25.89;55.16;100943.34;2047318;28;19926;-73
2022/09/06 05:45:25;;;;;;;;;;;;;;;25.93;55.14;100958.47;2044015;28;20029;-73
2022/09/06 05:46:47;;;;;;;;;;;;;;;25.96;54.99;100960.19;2063583;28;20443;-73
2022/09/06 05:48:11;;;;;;;;;;;;;;;25.96;54.60;100952.94;2063027;28;20629;-72
2022/09/06 05:49:33;;;;;;;;;;;;;;;25.98;54.65;100958.28;2062112;28;19956;-73
2022/09/06 05:51:02;;;;;;;;;;;;;;;25.99;54.36;100955.50;2062633;28;19922;-73
2022/09/06 05:52:24;;;;;;;;;;;;;;;26.04;53.76;100948.06;2052503;28;19992;-73
2022/09/06 05:53:46;;;;;;;;;;;;;;;26.29;53.95;100945.16;2051911;28;19922;-73
2022/09/06 05:55:09;;;;;;;;;;;;;;;26.66;52.97;100952.41;2051378;28;19921;-72
2022/09/06 05:56:30;;;;;;;;;;;;;;;26.86;52.52;100952.31;2052106;28;19922;-73
2022/09/06 05:57:52;;;;;;;;;;;;;;;27.00;52.39;100953.50;2054020;28;20012;-73
2022/09/06 05:59:15;;;;;;;;;;;;;;;27.19;51.82;100960.66;2059254;28;19929;-73
2022/09/06 06:00:37;;;;;;;;;;;;;;;27.23;51.82;100955.97;2061598;28;20008;-73
2022/09/06 06:01:59;;;;;;;;;;;;;;;27.26;51.66;100967.53;2059937;28;20398;-73
2022/09/06 06:03:22;;;;;;;;;;;;;;;27.30;52.02;100960.13;2055494;28;19961;-72
2022/09/06 06:04:43;;;;;;;;;;;;;;;27.31;51.70;100961.84;2043319;29;19930;-73
2022/09/06 06:06:06;;;;;;;;;;;;;;;27.27;51.96;100952.13;2048869;28;19929;-73
2022/09/06 06:07:28;;;;;;;;;;;;;;;27.20;51.56;100958.81;2057846;28;20337;-73
2022/09/06 06:08:50;;;;;;;;;;;;;;;27.11;51.82;100954.72;2057147;28;20358;-72
2022/09/06 06:10:13;;;;;;;;;;;;;;;27.04;51.52;100953.31;2067790;28;19925;-72
2022/09/06 06:11:35;;;;;;;;;;;;;;;26.95;51.61;100957.34;2055284;28;19930;-72
2022/09/06 06:12:57;;;;;;;;;;;;;;;26.84;50.95;100947.94;2048188;28;19933;-72
2022/09/06 06:14:18;;;;;;;;;;;;;;;26.75;51.51;100960.09;2062068;28;20040;-73
2022/09/06 06:15:40;;;;;;;;;;;;;;;26.77;51.33;100965.44;2054085;28;19932;-72
2022/09/06 06:17:02;;;;;;;;;;;;;;;26.82;51.15;100953.44;2052013;28;19926;-72
2022/09/06 06:18:26;;;;;;;;;;;;;;;26.87;50.87;100954.06;2061763;28;19932;-71
2022/09/06 06:19:48;;;;;;;;;;;;;;;26.86;51.25;100960.44;2062415;28;20027;-72
2022/09/06 06:21:11;;;;;;;;;;;;;;;26.86;50.98;100957.75;2062394;28;19929;-73
2022/09/06 06:22:33;;;;;;;;;;;;;;;26.87;51.19;100962.22;2060701;28;20906;-72
2022/09/06 06:23:56;;;;;;;;;;;;;;;26.84;51.17;100956.97;2053538;28;19922;-72
2022/09/06 06:25:21;;;;;;;;;;;;;;;26.85;51.26;100964.09;2055707;28;19926;-73
2022/09/06 06:26:44;;;;;;;;;;;;;;;26.93;51.06;100963.78;2061786;28;20476;-72
2022/09/06 06:28:06;;;;;;;;;;;;;;;27.04;50.91;100964.16;2061014;28;19929;-72
2022/09/06 06:29:28;;;;;;;;;;;;;;;27.33;50.97;100955.41;2060079;28;19922;-72
2022/09/06 06:30:49;;;;;;;;;;;;;;;27.50;50.60;100962.72;2054347;28;19949;-73
2022/09/06 06:32:11;;;;;;;;;;;;;;;27.52;50.23;100955.38;2058721;28;19922;-72
2022/09/06 06:33:35;;;;;;;;;;;;;;;27.48;50.23;100959.19;2054899;28;20659;-72
2022/09/06 06:34:57;;;;;;;;;;;;;;;27.41;50.50;100967.72;2058454;28;19922;-72
2022/09/06 06:36:20;;;;;;;;;;;;;;;27.36;50.80;100973.38;2064595;28;19975;-72
2022/09/06 06:37:43;;;;;;;;;;;;;;;27.30;50.99;100976.41;2056929;28;20406;-72
2022/09/06 06:39:07;;;;;;;;;;;;;;;27.27;50.96;100979.25;2051253;28;19929;-72
2022/09/06 06:40:28;;;;;;;;;;;;;;;27.23;51.04;100980.38;2058060;28;19929;-72
2022/09/06 06:41:50;;;;;;;;;;;;;;;27.17;51.23;100992.41;2061186;28;19932;-72
2022/09/06 06:43:21;;;;;;;;;;;;;;;27.13;51.19;100989.91;2055598;28;19926;-72
2022/09/06 06:44:44;;;;;;;;;;;;;;;27.08;51.46;100994.66;2049496;28;19922;-72
2022/09/06 06:46:07;;;;;;;;;;;;;;;27.05;51.78;100986.69;2056210;28;20038;-72
2022/09/06 06:47:30;;;;;;;;;;;;;;;27.03;51.88;100984.06;2063954;28;19926;-73
2022/09/06 06:48:54;;;;;;;;;;;;;;;27.06;51.62;100997.44;2062861;28;19953;-73
2022/09/06 06:50:16;;;;;;;;;;;;;;;27.15;51.64;100998.84;2053341;28;19940;-73
2022/09/06 06:51:38;;;;;;;;;;;;;;;27.29;51.73;100990.91;2057003;28;19921;-73
2022/09/06 06:53:00;;;;;;;;;;;;;;;27.44;51.18;100998.25;2061732;28;20550;-73
2022/09/06 06:54:23;;;;;;;;;;;;;;;27.44;51.18;100992.81;2061844;28;19922;-73
2022/09/06 06:55:47;;;;;;;;;;;;;;;27.30;51.16;100996.25;2045865;28;20013;-72
2022/09/06 06:57:11;;;;;;;;;;;;;;;27.13;51.95;100998.03;2056902;28;19926;-72
2022/09/06 06:58:32;;;;;;;;;;;;;;;27.05;52.12;101002.94;2057566;28;19926;-73
2022/09/06 06:59:54;;;;;;;;;;;;;;;27.03;51.78;101013.88;2056664;28;19988;-72
2022/09/06 07:01:18;;;;;;;;;;;;;;;27.01;52.06;101013.06;2063844;28;19926;-72
2022/09/06 07:02:43;;;;;;;;;;;;;;;26.98;51.83;101018.63;2062030;28;19921;-74
2022/09/06 07:04:09;;;;;;;;;;;;;;;26.97;51.84;101014.19;2061872;28;20353;-72
2022/09/06 07:05:31;;;;;;;;;;;;;;;26.98;52.35;101015.91;2066999;28;19928;-72
2022/09/06 07:06:54;;;;;;;;;;;;;;;26.98;51.93;101015.06;2064192;28;19993;-72